KSJS

Big Sandy Regional Airport

Prestonsburg, Kentucky, USA
METAR KSJS 190835Z AUTO 00000KT 10SM BKN055 21/21 A2998 RMK AO2 T02050205
Observed Flight Rules
Sep-19 @ 08:35 UTC (30 minutes ago) Visual Flight Rules
Visibility Clouds
10 miles
  • Broken at 5,500' AGL
Temperatures Readings
Current 21°C / 70°F
Dewpoint 21°C / 70°F
Humidity 100%
Altimeter 29.98" Hg
Pressure 1015 hPa
Elevation 372
METAR KSJS 190835Z AUTO 00000KT 10SM BKN055 21/21 A2998 RMK AO2 T02050205
Observed Flight Rules
Sep-19 @ 08:35 UTC
(30 minutes ago)
VFR
Clouds
  • Broken at 5,500' AGL
Temperature Dewpoint
21°C / 70°F 21°C / 70°F
Humidity Altimeter Pressure
100% 29.98" Hg 1015 hPa